Time;durP1;ratioP1;P1;durP2;ratioP2;P2;SDS_P1;SDS_P2;PMS_P1;PMS_P2;Temp;Humidity;BMP_temperature;BMP_pressure;BME280_temperature;BME280_humidity;BME280_pressure;Samples;Min_cycle;Max_cycle;Signal;HPM_P1;HPM_P2
2023/03/23 00:01:05;;;;;;;9.40;4.85;;;11.80;99.90;;;;;;5075622;28;20047;-94
2023/03/23 00:03:34;;;;;;;11.75;4.88;;;11.70;99.90;;;;;;5075785;28;20036;-94
2023/03/23 00:06:04;;;;;;;9.98;4.93;;;11.80;99.90;;;;;;5076337;28;20177;-94
2023/03/23 00:08:37;;;;;;;10.73;5.13;;;11.80;99.90;;;;;;5075850;28;20430;-94
2023/03/23 00:11:04;;;;;;;9.55;4.68;;;11.80;99.90;;;;;;5075602;28;20051;-94
2023/03/23 00:13:30;;;;;;;12.90;5.75;;;11.80;99.90;;;;;;5075460;28;20401;-94
2023/03/23 00:15:57;;;;;;;13.05;5.25;;;11.80;99.90;;;;;;5092252;28;20064;-94
2023/03/23 00:18:23;;;;;;;10.85;5.35;;;11.80;99.90;;;;;;5075863;28;20040;-95
2023/03/23 00:20:55;;;;;;;10.82;6.95;;;11.80;99.90;;;;;;5074990;28;20533;-94
2023/03/23 00:23:23;;;;;;;12.75;5.50;;;11.90;99.90;;;;;;5093166;28;20114;-94
2023/03/23 00:25:58;;;;;;;11.02;4.60;;;11.80;99.90;;;;;;5075847;28;20071;-94
2023/03/23 00:28:26;;;;;;;10.00;4.72;;;11.80;99.90;;;;;;5075089;28;20097;-94
2023/03/23 00:31:01;;;;;;;9.13;4.53;;;11.80;99.90;;;;;;5075550;28;20047;-95
2023/03/23 00:33:28;;;;;;;9.63;3.92;;;11.80;99.90;;;;;;5075009;28;20122;-95
2023/03/23 00:35:55;;;;;;;12.00;4.93;;;11.80;99.90;;;;;;5074776;28;20081;-94
2023/03/23 00:38:22;;;;;;;9.13;4.60;;;11.80;99.90;;;;;;5075150;28;20397;-94
2023/03/23 00:40:49;;;;;;;10.13;4.25;;;11.80;99.90;;;;;;5074487;28;20028;-94
2023/03/23 00:43:16;;;;;;;10.10;4.60;;;11.80;99.90;;;;;;5074911;28;20462;-93
2023/03/23 00:45:52;;;;;;;8.70;4.45;;;11.80;99.90;;;;;;5074838;28;20067;-93
2023/03/23 00:48:19;;;;;;;9.82;4.18;;;11.80;99.90;;;;;;5075388;28;20501;-94
2023/03/23 00:50:45;;;;;;;9.07;4.20;;;11.80;99.90;;;;;;5083279;28;20043;-94
2023/03/23 00:53:11;;;;;;;11.10;4.50;;;11.80;99.90;;;;;;5097259;28;20409;-93
2023/03/23 00:55:36;;;;;;;8.50;3.53;;;11.80;99.90;;;;;;5081264;28;20032;-94
2023/03/23 00:58:02;;;;;;;8.00;3.33;;;11.90;99.90;;;;;;5099541;28;20040;-94
2023/03/23 01:00:28;;;;;;;10.18;3.78;;;11.90;99.90;;;;;;5097090;28;20039;-94
2023/03/23 01:02:54;;;;;;;9.68;3.25;;;11.90;99.90;;;;;;5099953;28;20047;-94
2023/03/23 01:05:21;;;;;;;8.60;3.10;;;12.00;99.90;;;;;;5066373;28;20485;-93
2023/03/23 01:07:48;;;;;;;9.27;3.25;;;12.00;99.90;;;;;;5100184;28;20039;-95
2023/03/23 01:10:17;;;;;;;7.95;2.75;;;12.00;99.90;;;;;;5101470;28;20122;-92
2023/03/23 01:12:46;;;;;;;6.75;2.63;;;12.10;99.90;;;;;;5080262;28;20044;-92
2023/03/23 01:15:17;;;;;;;6.97;2.80;;;12.10;99.90;;;;;;5063494;28;20436;-92
2023/03/23 01:17:43;;;;;;;8.80;3.33;;;12.10;99.90;;;;;;5097542;28;20043;-93
2023/03/23 01:20:10;;;;;;;8.63;3.63;;;12.10;99.90;;;;;;5078836;28;20078;-92
2023/03/23 01:22:37;;;;;;;7.68;3.47;;;12.10;99.90;;;;;;5081793;28;20047;-93
2023/03/23 01:25:04;;;;;;;7.15;3.20;;;12.10;99.90;;;;;;5081350;28;20036;-92
2023/03/23 01:27:29;;;;;;;12.75;4.10;;;12.00;99.90;;;;;;5095862;28;20032;-91
2023/03/23 01:29:55;;;;;;;8.68;3.80;;;12.00;99.90;;;;;;5118699;27;20459;-93
2023/03/23 01:32:21;;;;;;;13.23;3.65;;;12.00;99.90;;;;;;5064593;28;20070;-93
2023/03/23 01:34:46;;;;;;;8.75;3.58;;;11.90;99.90;;;;;;5095860;28;20025;-93
2023/03/23 01:37:12;;;;;;;7.78;3.33;;;11.90;99.90;;;;;;5080835;28;20039;-93
2023/03/23 01:39:38;;;;;;;8.00;3.70;;;11.90;99.90;;;;;;5076609;28;20460;-93
2023/03/23 01:42:04;;;;;;;9.60;3.67;;;11.90;99.90;;;;;;5093080;28;20408;-92
2023/03/23 01:44:29;;;;;;;8.52;3.33;;;11.90;99.90;;;;;;5073798;28;20092;-92
2023/03/23 01:46:55;;;;;;;10.35;3.45;;;11.90;99.90;;;;;;5073019;28;20398;-92
2023/03/23 01:49:29;;;;;;;9.23;3.20;;;11.90;99.90;;;;;;5073937;28;20044;-90
2023/03/23 01:52:02;;;;;;;9.85;3.20;;;11.90;99.90;;;;;;5089741;28;20039;-93
2023/03/23 01:54:29;;;;;;;9.27;3.05;;;11.90;99.90;;;;;;5073348;28;20078;-94
2023/03/23 01:57:13;;;;;;;10.55;3.38;;;11.80;99.90;;;;;;5074063;28;20040;-92
2023/03/23 01:59:43;;;;;;;9.90;3.28;;;11.90;99.90;;;;;;5089836;28;20386;-93
2023/03/23 02:02:10;;;;;;;9.77;4.88;;;11.90;99.90;;;;;;5073689;28;20040;-93
2023/03/23 02:04:37;;;;;;;9.95;3.53;;;11.90;99.90;;;;;;5089439;28;20561;-93
2023/03/23 02:07:03;;;;;;;8.63;3.22;;;11.90;99.90;;;;;;5072699;28;20125;-93
2023/03/23 02:09:30;;;;;;;8.32;3.35;;;11.90;99.90;;;;;;5090316;28;20439;-93
2023/03/23 02:11:56;;;;;;;8.48;2.90;;;11.90;99.90;;;;;;5073466;28;20374;-94
2023/03/23 02:14:25;;;;;;;10.02;3.65;;;11.80;99.90;;;;;;5073424;28;20044;-93
2023/03/23 02:17:14;;;;;;;8.23;3.22;;;11.80;99.90;;;;;;5090667;28;20495;-95
2023/03/23 02:20:06;;;;;;;9.50;3.20;;;11.80;99.90;;;;;;5074537;28;20033;-94
2023/03/23 02:23:04;;;;;;;8.50;3.47;;;11.80;99.90;;;;;;5073488;28;20097;-94
2023/03/23 02:25:44;;;;;;;7.00;3.00;;;11.80;99.90;;;;;;5076855;28;20031;-94
2023/03/23 02:28:13;;;;;;;7.80;3.28;;;11.80;99.90;;;;;;5093439;28;20036;-93
2023/03/23 02:31:16;;;;;;;8.98;3.25;;;11.80;99.90;;;;;;5094022;28;20502;-93
2023/03/23 02:33:51;;;;;;;9.95;3.53;;;11.80;99.90;;;;;;5094022;28;20400;-93
2023/03/23 02:36:26;;;;;;;8.30;3.40;;;11.80;99.90;;;;;;5094208;28;20043;-93
2023/03/23 02:39:13;;;;;;;8.70;3.47;;;11.80;99.90;;;;;;5077568;28;20519;-93
2023/03/23 02:41:50;;;;;;;10.13;3.42;;;11.80;99.90;;;;;;5076553;28;20033;-94
2023/03/23 02:44:16;;;;;;;9.60;3.38;;;11.80;99.90;;;;;;5077423;28;20046;-93
2023/03/23 02:46:44;;;;;;;8.05;3.25;;;11.80;99.90;;;;;;5076711;28;20043;-94
2023/03/23 02:49:14;;;;;;;8.30;3.17;;;11.80;99.90;;;;;;5075992;28;20040;-92
2023/03/23 02:51:42;;;;;;;7.43;3.13;;;11.80;99.90;;;;;;5076358;28;20141;-93
2023/03/23 02:54:08;;;;;;;7.72;3.30;;;11.80;99.90;;;;;;5075967;28;20611;-93
2023/03/23 02:56:34;;;;;;;8.13;3.20;;;11.80;99.90;;;;;;5076015;28;20433;-92
2023/03/23 02:59:01;;;;;;;8.48;3.35;;;11.80;99.90;;;;;;5076260;28;20036;-94
2023/03/23 03:01:32;;;;;;;7.63;3.13;;;11.80;99.90;;;;;;5092858;28;20079;-92
2023/03/23 03:04:00;;;;;;;7.15;3.15;;;11.80;99.90;;;;;;5076662;28;20958;-93
2023/03/23 03:06:45;;;;;;;7.95;3.15;;;11.80;99.90;;;;;;5076660;28;20075;-92
2023/03/23 03:09:20;;;;;;;11.27;4.05;;;11.80;99.90;;;;;;5076393;28;20048;-93
2023/03/23 03:11:51;;;;;;;7.72;3.33;;;11.80;99.90;;;;;;5093317;28;20040;-92
2023/03/23 03:14:25;;;;;;;8.25;2.97;;;11.80;99.90;;;;;;5092990;28;20059;-92
2023/03/23 03:17:00;;;;;;;8.63;2.92;;;11.80;99.90;;;;;;5076796;28;20412;-93
2023/03/23 03:19:35;;;;;;;7.25;2.90;;;11.80;99.90;;;;;;5075609;28;20509;-93
2023/03/23 03:22:02;;;;;;;9.05;2.92;;;11.90;99.90;;;;;;5093346;28;20459;-93
2023/03/23 03:24:30;;;;;;;7.18;3.08;;;11.90;99.90;;;;;;5076305;28;20040;-92
2023/03/23 03:26:59;;;;;;;8.05;3.38;;;11.90;99.90;;;;;;5075382;28;20079;-92
2023/03/23 03:29:34;;;;;;;8.35;3.25;;;11.90;99.90;;;;;;5075990;28;20080;-93
2023/03/23 03:32:04;;;;;;;6.53;2.67;;;11.90;99.90;;;;;;5084249;28;20044;-93
2023/03/23 03:34:31;;;;;;;6.63;2.80;;;12.00;99.90;;;;;;5075566;28;20057;-93
2023/03/23 03:36:59;;;;;;;8.25;3.08;;;12.00;99.90;;;;;;5074431;28;20554;-94
2023/03/23 03:39:26;;;;;;;7.35;3.00;;;12.00;99.90;;;;;;5075354;28;20031;-93
2023/03/23 03:41:52;;;;;;;7.80;3.10;;;12.00;99.90;;;;;;5074897;28;20039;-93
2023/03/23 03:44:17;;;;;;;7.65;3.03;;;12.00;99.90;;;;;;5075625;28;20039;-92
2023/03/23 03:46:43;;;;;;;7.40;3.30;;;12.00;99.90;;;;;;5075576;28;20497;-93
2023/03/23 03:49:12;;;;;;;8.68;3.25;;;12.10;99.90;;;;;;5091972;28;20043;-93
2023/03/23 03:51:38;;;;;;;8.98;3.38;;;12.00;99.90;;;;;;5075704;28;20047;-93
2023/03/23 03:54:04;;;;;;;7.32;2.95;;;12.10;99.90;;;;;;5092326;28;20044;-94
2023/03/23 03:56:31;;;;;;;8.02;3.10;;;12.00;99.90;;;;;;5074922;28;20077;-92
2023/03/23 03:58:57;;;;;;;7.30;3.05;;;12.00;99.90;;;;;;5091734;28;20040;-93
2023/03/23 04:01:23;;;;;;;8.57;3.25;;;12.10;99.90;;;;;;5075268;28;20546;-93
2023/03/23 04:03:50;;;;;;;8.20;3.05;;;12.10;99.90;;;;;;5075713;28;20039;-93
2023/03/23 04:06:16;;;;;;;9.07;3.20;;;12.10;99.90;;;;;;5075849;28;20036;-93
2023/03/23 04:08:42;;;;;;;7.72;3.05;;;12.10;99.90;;;;;;5091650;28;20066;-93
2023/03/23 04:11:10;;;;;;;6.75;3.25;;;12.10;99.90;;;;;;5092397;28;20044;-93
2023/03/23 04:13:36;;;;;;;9.18;3.90;;;12.10;99.90;;;;;;5073932;28;20119;-93
2023/03/23 04:16:02;;;;;;;7.80;3.15;;;12.10;99.90;;;;;;5074927;28;20134;-94
2023/03/23 04:18:29;;;;;;;10.43;3.28;;;12.10;99.90;;;;;;5090644;28;20077;-92
2023/03/23 04:20:58;;;;;;;9.65;3.38;;;12.10;99.90;;;;;;5074429;28;20065;-93
2023/03/23 04:23:25;;;;;;;8.38;3.28;;;12.10;99.90;;;;;;5074600;28;20035;-93
2023/03/23 04:25:52;;;;;;;8.13;3.58;;;12.10;99.90;;;;;;5074245;28;20108;-93
2023/03/23 04:28:18;;;;;;;8.65;3.40;;;12.10;99.90;;;;;;5074323;28;20112;-93
2023/03/23 04:30:48;;;;;;;8.80;3.40;;;12.10;99.90;;;;;;5091174;28;20572;-93
2023/03/23 04:33:15;;;;;;;8.05;3.17;;;12.10;99.90;;;;;;5074516;28;20121;-93
2023/03/23 04:35:45;;;;;;;10.77;4.00;;;12.10;99.90;;;;;;5090885;28;20489;-94
2023/03/23 04:38:13;;;;;;;9.18;3.85;;;12.10;99.90;;;;;;5091085;28;20040;-94
2023/03/23 04:40:40;;;;;;;11.57;3.90;;;12.10;99.90;;;;;;5090840;28;20043;-93
2023/03/23 04:43:06;;;;;;;9.10;3.78;;;12.10;99.90;;;;;;5074131;28;20046;-94
2023/03/23 04:45:33;;;;;;;8.40;3.08;;;12.10;99.90;;;;;;5074688;28;20036;-93
2023/03/23 04:48:01;;;;;;;10.13;3.72;;;12.10;99.90;;;;;;5074377;28;20507;-93
2023/03/23 04:50:30;;;;;;;10.95;3.35;;;12.10;99.90;;;;;;5074678;28;20072;-94
2023/03/23 04:52:57;;;;;;;8.55;3.05;;;12.10;99.90;;;;;;5075783;28;20062;-94
2023/03/23 04:55:25;;;;;;;8.70;3.53;;;12.10;99.90;;;;;;5073632;28;20040;-94
2023/03/23 04:57:51;;;;;;;9.77;2.97;;;12.10;99.90;;;;;;5074393;28;20050;-93
2023/03/23 05:00:17;;;;;;;9.68;3.53;;;12.10;99.90;;;;;;5090867;28;20156;-94
2023/03/23 05:02:46;;;;;;;9.27;3.03;;;12.10;99.90;;;;;;5074537;28;20059;-93
2023/03/23 05:05:13;;;;;;;9.20;2.78;;;12.20;99.90;;;;;;5092028;28;20043;-93
2023/03/23 05:07:40;;;;;;;9.40;3.17;;;12.20;99.90;;;;;;5074190;28;20499;-94
2023/03/23 05:10:10;;;;;;;8.82;3.13;;;12.20;99.90;;;;;;5074888;28;20032;-94
2023/03/23 05:12:37;;;;;;;7.35;2.72;;;12.20;99.90;;;;;;5073884;28;20039;-93
2023/03/23 05:15:03;;;;;;;12.00;4.70;;;12.20;99.90;;;;;;5074390;28;20542;-93
2023/03/23 05:17:30;;;;;;;6.82;2.75;;;12.30;99.90;;;;;;5074025;28;20051;-93
2023/03/23 05:19:56;;;;;;;8.13;3.15;;;12.30;99.90;;;;;;5090651;28;20036;-93
2023/03/23 05:22:23;;;;;;;8.52;2.65;;;12.30;99.90;;;;;;5074439;28;20086;-93
2023/03/23 05:24:51;;;;;;;8.07;2.90;;;12.20;99.90;;;;;;5073816;28;20047;-93
2023/03/23 05:27:18;;;;;;;8.43;3.45;;;12.20;99.90;;;;;;5091596;28;20562;-93
2023/03/23 05:29:48;;;;;;;9.15;3.58;;;12.20;99.90;;;;;;5073850;28;20042;-94
2023/03/23 05:32:14;;;;;;;11.18;3.35;;;12.20;99.90;;;;;;5074338;28;20050;-94
2023/03/23 05:34:42;;;;;;;10.27;3.05;;;12.10;99.90;;;;;;5074225;28;20043;-95
2023/03/23 05:37:09;;;;;;;7.28;2.72;;;12.00;99.90;;;;;;5073434;28;20119;-93
2023/03/23 05:39:35;;;;;;;8.13;2.42;;;11.80;99.90;;;;;;5073240;28;20082;-93
2023/03/23 05:42:01;;;;;;;9.27;2.15;;;11.70;99.90;;;;;;5090118;28;20036;-92
2023/03/23 05:44:27;;;;;;;8.05;2.28;;;11.60;99.90;;;;;;5073736;28;20631;-92
2023/03/23 05:46:52;;;;;;;7.32;1.98;;;11.50;99.90;;;;;;5090733;28;20471;-92
2023/03/23 05:49:18;;;;;;;10.13;2.13;;;11.30;99.90;;;;;;5072066;28;20504;-92
2023/03/23 05:51:45;;;;;;;7.63;2.10;;;11.20;99.90;;;;;;5088756;28;20070;-92
2023/03/23 05:54:13;;;;;;;6.68;1.85;;;11.10;99.90;;;;;;5071813;28;20036;-92
2023/03/23 05:56:38;;;;;;;6.57;2.13;;;11.00;99.90;;;;;;5072300;28;20071;-92
2023/03/23 05:59:04;;;;;;;5.85;2.25;;;10.90;99.90;;;;;;5072334;28;20466;-92
2023/03/23 06:01:31;;;;;;;8.63;2.28;;;10.90;99.90;;;;;;5076009;28;20070;-92
2023/03/23 06:03:58;;;;;;;5.60;1.88;;;10.80;99.90;;;;;;5076505;28;20042;-92
2023/03/23 06:06:29;;;;;;;5.10;1.60;;;10.80;99.90;;;;;;5076550;28;20036;-90
2023/03/23 06:08:55;;;;;;;8.55;2.30;;;10.90;99.90;;;;;;5077117;28;20122;-91
2023/03/23 06:11:21;;;;;;;6.85;1.98;;;10.90;99.90;;;;;;5094208;28;20047;-91
2023/03/23 06:13:47;;;;;;;5.55;1.75;;;11.00;99.90;;;;;;5093231;28;20046;-91
2023/03/23 06:16:14;;;;;;;6.57;2.10;;;11.00;99.90;;;;;;5076469;28;20169;-91
2023/03/23 06:18:40;;;;;;;5.50;2.17;;;11.00;99.90;;;;;;5076004;28;20036;-91
2023/03/23 06:21:07;;;;;;;5.80;1.90;;;11.10;99.90;;;;;;5076662;28;20036;-91
2023/03/23 06:23:34;;;;;;;6.47;1.88;;;11.10;99.90;;;;;;5093246;28;20036;-91
2023/03/23 06:26:03;;;;;;;6.70;1.75;;;11.10;99.90;;;;;;5076997;28;20196;-91
2023/03/23 06:28:29;;;;;;;4.47;1.48;;;11.10;99.90;;;;;;5076315;28;20424;-91
2023/03/23 06:30:54;;;;;;;8.13;1.70;;;11.20;99.90;;;;;;5076352;28;20047;-91
2023/03/23 06:33:20;;;;;;;4.35;1.63;;;11.20;99.90;;;;;;5093581;28;20044;-91
2023/03/23 06:35:46;;;;;;;8.82;2.28;;;11.20;99.90;;;;;;5075866;28;20043;-92
2023/03/23 06:38:12;;;;;;;9.10;1.85;;;11.20;99.90;;;;;;5076174;28;20032;-91
2023/03/23 06:40:38;;;;;;;8.23;2.45;;;11.30;99.90;;;;;;5092633;28;20047;-91
2023/03/23 06:43:04;;;;;;;11.38;2.50;;;11.30;99.90;;;;;;5076684;28;20044;-91
2023/03/23 06:45:31;;;;;;;7.35;1.90;;;11.40;99.90;;;;;;5075676;28;20032;-91
2023/03/23 06:47:57;;;;;;;10.73;1.95;;;11.40;99.90;;;;;;5076590;28;20048;-90
2023/03/23 06:50:23;;;;;;;7.20;2.00;;;11.40;99.90;;;;;;5093366;28;20131;-90
2023/03/23 06:52:50;;;;;;;8.77;2.45;;;11.40;99.90;;;;;;5092841;28;20132;-91
2023/03/23 06:55:16;;;;;;;6.95;2.65;;;11.50;99.90;;;;;;5092828;28;20047;-91
2023/03/23 06:57:43;;;;;;;9.93;2.20;;;11.50;99.90;;;;;;5075338;28;20092;-91
2023/03/23 07:00:12;;;;;;;9.55;2.58;;;11.50;99.90;;;;;;5092702;28;20069;-91
2023/03/23 07:02:41;;;;;;;7.30;2.38;;;11.50;99.90;;;;;;5075531;28;20032;-90
2023/03/23 07:05:09;;;;;;;11.00;2.50;;;11.60;99.90;;;;;;5075194;28;20032;-91
2023/03/23 07:07:36;;;;;;;9.45;2.25;;;11.60;99.90;;;;;;5075084;28;20564;-90
2023/03/23 07:10:07;;;;;;;14.77;3.08;;;11.60;99.90;;;;;;5075249;28;20534;-91
2023/03/23 07:12:33;;;;;;;11.20;2.67;;;11.60;99.90;;;;;;5075750;28;20043;-91
2023/03/23 07:14:59;;;;;;;9.10;2.38;;;11.60;99.90;;;;;;5075768;28;20570;-91
2023/03/23 07:17:25;;;;;;;12.45;2.28;;;11.60;99.90;;;;;;5074429;28;20052;-91
2023/03/23 07:19:51;;;;;;;10.00;2.65;;;11.60;99.90;;;;;;5075287;28;20400;-91
2023/03/23 07:22:16;;;;;;;12.75;2.35;;;11.60;99.90;;;;;;5092394;28;20039;-91
2023/03/23 07:24:42;;;;;;;12.57;2.50;;;11.60;99.90;;;;;;5093050;28;20044;-91
2023/03/23 07:27:09;;;;;;;12.93;2.42;;;11.60;99.90;;;;;;5094071;28;20040;-91
2023/03/23 07:29:38;;;;;;;8.55;2.53;;;11.60;99.90;;;;;;5112747;28;20043;-90
2023/03/23 07:32:04;;;;;;;9.57;2.55;;;11.60;99.90;;;;;;5077989;28;20036;-91
2023/03/23 07:34:31;;;;;;;13.38;2.63;;;11.60;99.90;;;;;;5075672;28;20040;-90
2023/03/23 07:36:57;;;;;;;9.30;2.42;;;11.60;99.90;;;;;;5075539;28;20045;-91
2023/03/23 07:39:24;;;;;;;10.95;2.40;;;11.60;99.90;;;;;;5091658;28;20036;-90
2023/03/23 07:41:50;;;;;;;10.13;2.08;;;11.70;99.90;;;;;;5091955;28;20081;-90
2023/03/23 07:44:16;;;;;;;8.98;2.00;;;11.70;99.90;;;;;;5075517;28;20051;-91
2023/03/23 07:46:42;;;;;;;9.70;2.45;;;11.70;99.90;;;;;;5074570;28;20036;-90
2023/03/23 07:49:08;;;;;;;9.13;2.17;;;11.70;99.90;;;;;;5074450;28;20061;-90
2023/03/23 07:51:35;;;;;;;9.48;1.92;;;11.70;99.90;;;;;;5091149;28;20127;-91
2023/03/23 07:54:02;;;;;;;9.70;1.98;;;11.80;99.90;;;;;;5073750;28;20043;-91
2023/03/23 07:56:29;;;;;;;13.95;2.53;;;11.80;99.90;;;;;;5074606;28;20282;-91
2023/03/23 07:58:54;;;;;;;11.50;2.28;;;11.90;99.90;;;;;;5074224;28;20493;-92
2023/03/23 08:01:21;;;;;;;8.57;1.98;;;11.90;99.90;;;;;;5074668;28;20051;-92
2023/03/23 08:03:46;;;;;;;9.73;2.53;;;11.90;99.90;;;;;;5091422;28;20044;-91
2023/03/23 08:06:13;;;;;;;9.75;2.40;;;11.90;99.90;;;;;;5091057;28;20051;-91
2023/03/23 08:08:40;;;;;;;10.32;2.20;;;12.00;99.90;;;;;;5091035;28;20036;-92
2023/03/23 08:11:06;;;;;;;15.27;3.38;;;12.00;99.90;;;;;;5073683;28;20044;-92
2023/03/23 08:13:33;;;;;;;13.85;2.92;;;12.00;99.90;;;;;;5073821;28;20036;-91
2023/03/23 08:16:03;;;;;;;14.52;2.80;;;12.00;99.90;;;;;;5072341;28;20032;-92
2023/03/23 08:18:29;;;;;;;9.45;2.25;;;12.10;99.90;;;;;;5090728;28;20040;-91
2023/03/23 08:20:55;;;;;;;10.35;2.47;;;12.10;99.90;;;;;;5074262;28;20531;-92
2023/03/23 08:23:21;;;;;;;10.55;3.00;;;12.10;99.90;;;;;;5073146;28;20071;-90
2023/03/23 08:25:48;;;;;;;16.33;3.67;;;12.10;99.90;;;;;;5090984;28;20086;-91
2023/03/23 08:28:16;;;;;;;12.25;2.55;;;12.10;99.90;;;;;;5073347;28;20424;-90
2023/03/23 08:30:42;;;;;;;12.50;3.25;;;12.10;99.90;;;;;;5074401;28;20090;-90
2023/03/23 08:33:10;;;;;;;10.73;2.80;;;12.10;99.90;;;;;;5067330;28;20386;-90
2023/03/23 08:35:36;;;;;;;10.35;2.55;;;12.10;99.90;;;;;;5071191;28;20112;-91
2023/03/23 08:38:03;;;;;;;10.27;2.35;;;12.10;99.90;;;;;;5106502;28;20036;-90
2023/03/23 08:40:28;;;;;;;9.40;2.53;;;12.10;99.90;;;;;;5072732;28;20031;-90
2023/03/23 08:42:55;;;;;;;12.18;2.95;;;12.10;99.90;;;;;;5074288;28;20416;-90
2023/03/23 08:45:23;;;;;;;10.45;2.88;;;12.10;99.90;;;;;;5073636;28;20032;-89
2023/03/23 08:47:51;;;;;;;13.25;2.60;;;12.10;99.90;;;;;;5089664;28;20036;-90
2023/03/23 08:50:19;;;;;;;14.07;2.80;;;12.10;99.90;;;;;;5090651;28;20096;-90
2023/03/23 08:52:45;;;;;;;10.63;3.15;;;12.10;99.90;;;;;;5072498;28;20042;-90
2023/03/23 08:55:12;;;;;;;13.45;3.22;;;12.10;99.90;;;;;;5091095;28;20036;-90
2023/03/23 08:57:38;;;;;;;13.68;3.30;;;12.10;99.90;;;;;;5091147;28;20035;-90
2023/03/23 09:00:17;;;;;;;11.88;2.92;;;12.20;99.90;;;;;;5073158;28;20570;-91
2023/03/23 09:02:48;;;;;;;15.30;4.80;;;12.20;99.90;;;;;;5090497;28;20047;-91
2023/03/23 09:05:15;;;;;;;15.88;3.13;;;12.20;99.90;;;;;;5085183;28;20037;-91
2023/03/23 09:07:47;;;;;;;9.35;3.05;;;12.30;99.90;;;;;;5080148;28;20037;-90
2023/03/23 09:10:14;;;;;;;12.13;3.75;;;12.30;99.90;;;;;;5088154;28;20036;-90
2023/03/23 09:12:40;;;;;;;13.15;3.58;;;12.30;99.90;;;;;;5088983;28;20046;-90
2023/03/23 09:15:09;;;;;;;15.43;3.65;;;12.30;99.90;;;;;;5088517;28;20040;-91
2023/03/23 09:17:37;;;;;;;14.85;3.55;;;12.30;99.90;;;;;;5082120;28;20032;-90
2023/03/23 09:20:10;;;;;;;10.55;3.40;;;12.30;99.90;;;;;;5062462;28;20104;-90
2023/03/23 09:22:36;;;;;;;9.43;3.22;;;12.30;99.90;;;;;;5067152;28;20032;-90
2023/03/23 09:25:03;;;;;;;14.13;3.60;;;12.30;99.90;;;;;;5107066;28;20043;-91
2023/03/23 09:27:29;;;;;;;10.18;4.03;;;12.30;99.90;;;;;;5105399;28;20075;-91
2023/03/23 09:29:55;;;;;;;13.25;4.95;;;12.20;99.90;;;;;;5073245;28;20501;-91
2023/03/23 09:32:22;;;;;;;11.13;3.05;;;12.30;99.90;;;;;;5072670;28;20032;-91
2023/03/23 09:34:48;;;;;;;12.45;3.42;;;12.30;99.90;;;;;;5071882;28;20566;-90
2023/03/23 09:37:14;;;;;;;12.82;3.28;;;12.30;99.90;;;;;;5073284;28;20039;-91
2023/03/23 09:39:40;;;;;;;11.18;2.97;;;12.30;99.90;;;;;;5072100;28;20040;-91
2023/03/23 09:42:38;;;;;;;10.63;3.22;;;12.30;99.90;;;;;;5090056;28;20039;-91
2023/03/23 09:45:17;;;;;;;12.40;2.83;;;12.40;99.90;;;;;;5071087;28;20097;-91
2023/03/23 09:48:20;;;;;;;12.15;2.72;;;12.40;99.90;;;;;;5063352;28;20093;-91
2023/03/23 09:50:50;;;;;;;9.15;2.42;;;12.40;99.90;;;;;;5066696;28;20036;-91
2023/03/23 09:53:23;;;;;;;8.15;2.47;;;12.50;99.90;;;;;;5100660;28;20044;-91
2023/03/23 09:55:50;;;;;;;9.02;2.45;;;12.50;99.90;;;;;;5064962;28;20457;-91
2023/03/23 09:58:26;;;;;;;14.02;4.10;;;12.50;99.90;;;;;;5093992;28;20047;-92
2023/03/23 10:00:58;;;;;;;8.38;2.28;;;12.50;99.90;;;;;;5079229;28;20040;-92
2023/03/23 10:03:33;;;;;;;10.73;2.38;;;12.50;99.90;;;;;;5065406;28;20123;-92
2023/03/23 10:05:59;;;;;;;10.75;2.10;;;12.50;99.90;;;;;;5097755;28;20036;-92
2023/03/23 10:08:31;;;;;;;9.60;2.28;;;12.60;99.90;;;;;;5064347;28;20036;-92
2023/03/23 10:11:10;;;;;;;8.82;1.85;;;12.70;99.90;;;;;;5076116;28;20123;-92
2023/03/23 10:13:57;;;;;;;11.40;3.05;;;12.80;99.90;;;;;;5078621;28;20076;-91
2023/03/23 10:16:28;;;;;;;9.40;2.17;;;12.80;99.90;;;;;;5080600;28;20164;-92
2023/03/23 10:19:04;;;;;;;9.73;3.05;;;13.00;99.90;;;;;;5062637;28;20493;-91
2023/03/23 10:21:33;;;;;;;10.50;2.85;;;13.10;99.90;;;;;;5075919;28;20115;-92
2023/03/23 10:24:04;;;;;;;11.40;3.25;;;13.20;99.90;;;;;;5078807;28;20055;-92
2023/03/23 10:27:07;;;;;;;10.70;2.80;;;13.20;99.90;;;;;;5061835;28;20173;-91
2023/03/23 10:29:57;;;;;;;7.72;2.58;;;13.20;99.90;;;;;;5020350;28;20779;-91
2023/03/23 10:32:38;;;;;;;7.75;1.80;;;13.30;99.90;;;;;;5034979;28;20136;-91
2023/03/23 10:35:10;;;;;;;9.98;1.88;;;13.20;99.90;;;;;;5000309;28;20128;-92
2023/03/23 10:37:47;;;;;;;7.93;2.10;;;13.20;99.90;;;;;;5003877;28;20049;-92
2023/03/23 10:40:23;;;;;;;12.50;3.22;;;13.30;99.90;;;;;;5021473;28;20125;-92
2023/03/23 10:42:49;;;;;;;8.20;2.20;;;13.50;99.90;;;;;;5020976;28;20174;-92
2023/03/23 10:45:22;;;;;;;12.05;3.28;;;13.50;99.90;;;;;;5002165;28;20036;-93
2023/03/23 10:47:53;;;;;;;;;;;13.50;99.90;;;;;;5022619;28;20067;-93
2023/03/23 10:50:26;;;;;;;8.32;2.40;;;13.60;99.90;;;;;;5023833;28;19967;-93
2023/03/23 10:52:53;;;;;;;7.63;1.85;;;13.60;99.90;;;;;;4998163;28;20045;-93
2023/03/23 10:55:23;;;;;;;8.05;2.13;;;13.70;99.90;;;;;;5003826;28;20095;-92
2023/03/23 10:58:02;;;;;;;7.93;1.90;;;13.80;99.90;;;;;;5005243;28;20038;-92
2023/03/23 11:00:29;;;;;;;11.77;2.95;;;13.70;99.90;;;;;;5020078;28;20038;-93
2023/03/23 11:03:26;;;;;;;13.18;3.40;;;13.80;99.90;;;;;;5009486;28;21825;-94
2023/03/23 11:06:04;;;;;;;7.85;2.00;;;14.10;99.90;;;;;;5043485;28;20044;-93
2023/03/23 11:08:37;;;;;;;8.05;2.05;;;14.10;99.90;;;;;;5085221;28;20036;-94
2023/03/23 11:11:17;;;;;;;;;;;14.20;99.90;;;;;;5098458;28;20462;-92
2023/03/23 11:13:45;;;;;;;7.07;1.77;;;14.30;99.90;;;;;;5060590;28;19927;-93
2023/03/23 11:16:25;;;;;;;7.97;1.98;;;14.40;99.90;;;;;;5054845;28;20521;-93
2023/03/23 11:18:52;;;;;;;11.70;3.55;;;14.30;99.90;;;;;;5092616;28;20074;-93
2023/03/23 11:21:20;;;;;;;13.38;3.35;;;14.30;99.90;;;;;;5092703;28;20077;-93
2023/03/23 11:23:57;;;;;;;11.38;3.50;;;14.50;99.90;;;;;;5091780;28;20558;-93
2023/03/23 11:26:34;;;;;;;9.57;2.13;;;14.70;99.90;;;;;;5075014;28;20047;-93
2023/03/23 11:29:19;;;;;;;9.50;3.00;;;14.70;99.90;;;;;;5074683;28;20047;-94
2023/03/23 11:31:52;;;;;;;13.55;3.15;;;14.70;99.90;;;;;;5085892;28;20051;-94
2023/03/23 11:34:19;;;;;;;;;;;14.80;99.90;;;;;;5092781;28;20047;-94
2023/03/23 11:36:53;;;;;;;12.15;2.38;;;14.80;95.80;;;;;;5076197;28;20312;-94
2023/03/23 11:39:21;;;;;;;6.68;1.55;;;14.90;99.90;;;;;;5075765;28;20036;-95
2023/03/23 11:41:47;;;;;;;10.18;3.10;;;15.00;99.90;;;;;;5075254;28;20028;-94
2023/03/23 11:44:13;;;;;;;9.73;2.00;;;15.00;94.70;;;;;;5076171;28;20048;-95
2023/03/23 11:47:22;;;;;;;11.55;3.05;;;14.70;92.10;;;;;;5075175;28;20123;-93
2023/03/23 11:50:05;;;;;;;9.57;2.40;;;14.50;91.80;;;;;;4990945;28;20047;-93
2023/03/23 11:52:40;;;;;;;;;;;14.20;93.80;;;;;;5074070;28;20528;-93
2023/03/23 11:55:16;;;;;;;9.40;2.03;;;14.10;97.60;;;;;;5091904;28;19931;-94
2023/03/23 11:57:43;;;;;;;13.00;3.50;;;14.00;99.90;;;;;;5074453;28;20396;-93
2023/03/23 12:00:28;;;;;;;9.75;2.47;;;14.00;99.90;;;;;;5091993;28;20048;-95
2023/03/23 12:03:33;;;;;;;12.25;3.50;;;14.10;99.90;;;;;;5075236;28;20043;-93
2023/03/23 12:06:08;;;;;;;14.35;3.47;;;14.40;99.90;;;;;;5083388;28;20036;-93
2023/03/23 12:08:43;;;;;;;7.15;1.70;;;14.70;99.90;;;;;;5064988;28;20493;-93
2023/03/23 12:11:34;;;;;;;11.68;2.13;;;14.90;99.90;;;;;;5070474;28;20120;-92
2023/03/23 12:14:17;;;;;;;10.43;2.40;;;15.10;99.90;;;;;;5074444;28;20136;-93
2023/03/23 12:17:05;;;;;;;14.60;3.17;;;15.20;99.20;;;;;;5074625;28;20062;-93
2023/03/23 12:20:04;;;;;;;13.98;3.35;;;15.20;95.40;;;;;;5057940;28;20040;-93
2023/03/23 12:23:05;;;;;;;11.40;2.95;;;15.40;98.20;;;;;;5061850;28;20060;-95
2023/03/23 12:25:42;;;;;;;13.52;3.92;;;15.50;91.50;;;;;;4979227;28;20481;-94
2023/03/23 12:28:32;;;;;;;10.05;2.22;;;15.60;92.20;;;;;;5046085;28;20052;-93
2023/03/23 12:31:03;;;;;;;12.80;3.75;;;15.70;91.70;;;;;;5074287;28;20036;-94
2023/03/23 12:33:54;;;;;;;11.90;3.25;;;15.80;90.10;;;;;;5074535;28;20062;-94
2023/03/23 12:36:42;;;;;;;10.77;3.20;;;15.70;84.00;;;;;;5089998;28;20040;-94
2023/03/23 12:39:25;;;;;;;10.68;2.25;;;15.90;86.80;;;;;;5070913;28;20046;-93
2023/03/23 12:42:30;;;;;;;10.57;3.40;;;15.90;84.30;;;;;;5068513;28;20028;-93
2023/03/23 12:45:12;;;;;;;11.13;3.00;;;15.70;82.10;;;;;;5086584;28;20125;-94
2023/03/23 12:47:44;;;;;;;11.50;1.70;;;15.50;81.80;;;;;;5073031;28;20825;-94
2023/03/23 12:50:30;;;;;;;9.50;1.83;;;15.20;83.60;;;;;;5073932;28;20051;-94
2023/03/23 12:52:57;;;;;;;14.02;2.83;;;15.30;87.00;;;;;;5091093;28;20044;-94
2023/03/23 12:55:28;;;;;;;11.45;3.67;;;15.30;86.30;;;;;;5073634;28;20748;-94
2023/03/23 12:58:18;;;;;;;11.75;3.22;;;15.50;85.40;;;;;;5074173;28;20040;-94
2023/03/23 13:01:02;;;;;;;12.35;2.38;;;15.80;85.50;;;;;;5090185;28;20042;-94